Time;durP1;ratioP1;P1;durP2;ratioP2;P2;SDS_P1;SDS_P2;PMS_P1;PMS_P2;Temp;Humidity;BMP_temperature;BMP_pressure;BME280_temperature;BME280_humidity;BME280_pressure;Samples;Min_cycle;Max_cycle;Signal;HPM_P1;HPM_P2
2023/12/01 00:01:33;;;;;;;13.45;6.45;;;2.40;99.90;;;;;;4997547;28;20025;-73
2023/12/01 00:03:59;;;;;;;17.17;6.90;;;2.40;99.90;;;;;;4980480;28;20121;-73
2023/12/01 00:06:24;;;;;;;13.10;6.25;;;2.40;99.90;;;;;;4980280;28;20030;-73
2023/12/01 00:08:50;;;;;;;16.42;6.72;;;2.30;99.90;;;;;;4980570;28;20121;-72
2023/12/01 00:11:16;;;;;;;14.43;6.53;;;2.20;99.90;;;;;;4980725;28;20069;-72
2023/12/01 00:13:42;;;;;;;18.05;7.43;;;2.30;99.90;;;;;;4980220;28;20035;-73
2023/12/01 00:16:08;;;;;;;15.13;6.72;;;2.30;99.90;;;;;;4980190;28;20045;-73
2023/12/01 00:18:33;;;;;;;19.55;8.15;;;2.00;99.90;;;;;;4997342;28;20031;-72
2023/12/01 00:20:59;;;;;;;20.65;8.32;;;2.00;99.90;;;;;;4980240;28;20114;-72
2023/12/01 00:23:24;;;;;;;18.95;7.97;;;1.90;99.90;;;;;;4980605;28;20121;-73
2023/12/01 00:25:50;;;;;;;15.00;6.88;;;2.00;99.90;;;;;;4980302;28;20026;-72
2023/12/01 00:28:16;;;;;;;14.75;6.40;;;2.10;99.90;;;;;;4997252;28;20034;-73
2023/12/01 00:30:41;;;;;;;20.73;7.82;;;2.30;99.90;;;;;;4997896;28;20034;-73
2023/12/01 00:33:07;;;;;;;11.98;6.55;;;2.30;99.90;;;;;;4997363;28;20026;-72
2023/12/01 00:35:32;;;;;;;14.85;6.63;;;2.40;99.90;;;;;;4997216;28;20027;-72
2023/12/01 00:37:58;;;;;;;14.45;6.32;;;2.30;99.90;;;;;;4997515;28;20054;-72
2023/12/01 00:40:24;;;;;;;16.20;6.90;;;2.40;99.90;;;;;;4997063;28;20023;-72
2023/12/01 00:42:49;;;;;;;18.30;7.57;;;2.30;99.90;;;;;;4997273;28;20054;-72
2023/12/01 00:45:18;;;;;;;16.15;7.60;;;2.30;99.90;;;;;;4997266;28;20062;-73
2023/12/01 00:47:43;;;;;;;17.08;7.30;;;2.30;99.90;;;;;;4980049;28;20027;-73
2023/12/01 00:50:09;;;;;;;17.30;7.38;;;2.30;99.90;;;;;;4997085;28;20030;-72
2023/12/01 00:52:35;;;;;;;17.20;7.75;;;2.30;99.90;;;;;;4980059;28;20023;-72
2023/12/01 00:55:00;;;;;;;19.15;8.13;;;2.30;99.90;;;;;;4997344;28;20026;-73
2023/12/01 00:57:26;;;;;;;19.58;8.63;;;2.30;99.90;;;;;;4998931;28;20027;-72
2023/12/01 00:59:51;;;;;;;16.58;7.93;;;2.40;99.90;;;;;;4984194;28;20022;-73
2023/12/01 01:02:17;;;;;;;20.65;9.23;;;2.30;99.90;;;;;;5000800;28;20026;-73
2023/12/01 01:04:43;;;;;;;18.15;8.35;;;2.30;99.90;;;;;;4983657;28;20022;-73
2023/12/01 01:07:08;;;;;;;19.05;7.80;;;2.30;99.90;;;;;;4984096;28;20030;-73
2023/12/01 01:09:34;;;;;;;24.73;8.38;;;2.30;99.90;;;;;;4983820;28;20033;-73
2023/12/01 01:12:01;;;;;;;17.58;8.45;;;2.30;99.90;;;;;;4983431;28;20114;-72
2023/12/01 01:14:27;;;;;;;19.48;8.38;;;2.30;99.90;;;;;;5000952;28;20015;-73
2023/12/01 01:16:53;;;;;;;19.85;8.20;;;2.30;99.90;;;;;;5000454;28;20024;-72
2023/12/01 01:19:18;;;;;;;20.27;7.78;;;2.20;99.90;;;;;;4983561;28;20018;-73
2023/12/01 01:21:44;;;;;;;17.23;7.28;;;2.20;99.90;;;;;;5000601;28;20080;-73
2023/12/01 01:24:09;;;;;;;18.30;7.85;;;2.10;99.90;;;;;;4983469;28;20057;-72
2023/12/01 01:26:35;;;;;;;20.27;8.82;;;2.10;99.90;;;;;;5000757;28;20026;-72
2023/12/01 01:29:00;;;;;;;19.85;8.27;;;2.30;99.90;;;;;;5000267;28;20093;-72
2023/12/01 01:31:26;;;;;;;15.75;7.65;;;2.30;99.90;;;;;;4983154;28;20034;-72
2023/12/01 01:33:51;;;;;;;18.20;8.95;;;2.30;99.90;;;;;;4983463;28;20089;-73
2023/12/01 01:36:18;;;;;;;16.70;7.40;;;2.40;99.90;;;;;;4983025;28;20072;-72
2023/12/01 01:38:43;;;;;;;18.25;7.47;;;2.30;99.90;;;;;;4982748;28;20023;-72
2023/12/01 01:41:09;;;;;;;16.00;6.97;;;2.30;99.90;;;;;;4982890;28;20110;-72
2023/12/01 01:43:34;;;;;;;14.93;6.95;;;2.30;99.90;;;;;;4983707;28;20030;-73
2023/12/01 01:46:09;;;;;;;14.63;6.90;;;2.30;99.90;;;;;;4983154;28;20033;-73
2023/12/01 01:48:35;;;;;;;16.48;7.85;;;2.30;99.90;;;;;;4999811;28;20022;-73
2023/12/01 01:51:02;;;;;;;18.08;8.77;;;2.40;99.90;;;;;;4982987;28;20031;-72
2023/12/01 01:53:29;;;;;;;15.82;6.88;;;2.40;99.90;;;;;;4982820;28;20114;-73
2023/12/01 01:55:57;;;;;;;16.30;7.53;;;2.30;99.90;;;;;;5000089;28;20033;-73
2023/12/01 01:58:24;;;;;;;17.15;8.00;;;2.40;99.90;;;;;;4999660;28;20042;-72
2023/12/01 02:00:50;;;;;;;18.83;8.80;;;2.40;99.90;;;;;;4999655;28;20019;-73
2023/12/01 02:03:17;;;;;;;17.95;8.13;;;2.40;99.90;;;;;;4999587;28;20026;-72
2023/12/01 02:05:47;;;;;;;19.38;8.90;;;2.40;99.90;;;;;;4999789;28;20027;-73
2023/12/01 02:08:28;;;;;;;17.50;8.13;;;2.50;99.90;;;;;;4999308;28;20019;-72
2023/12/01 02:10:55;;;;;;;16.63;7.38;;;2.50;99.90;;;;;;4999524;28;20026;-73
2023/12/01 02:13:22;;;;;;;18.15;8.32;;;2.40;99.90;;;;;;4983103;28;20026;-72
2023/12/01 02:15:48;;;;;;;19.15;8.18;;;2.40;99.90;;;;;;4999410;28;20025;-73
2023/12/01 02:18:20;;;;;;;19.42;8.27;;;2.50;99.90;;;;;;4999425;28;20041;-73
2023/12/01 02:20:46;;;;;;;19.35;7.72;;;2.40;99.90;;;;;;4982514;28;20094;-72
2023/12/01 02:23:11;;;;;;;18.30;7.93;;;2.30;99.90;;;;;;4999320;28;20119;-72
2023/12/01 02:25:37;;;;;;;19.60;8.75;;;2.30;99.90;;;;;;4999524;28;20034;-72
2023/12/01 02:28:02;;;;;;;21.73;8.52;;;2.30;99.90;;;;;;4982071;28;20030;-72
2023/12/01 02:30:28;;;;;;;22.58;9.00;;;2.20;99.90;;;;;;4999627;28;20069;-73
2023/12/01 02:32:53;;;;;;;20.95;8.35;;;2.20;99.90;;;;;;4999145;28;20018;-73
2023/12/01 02:35:19;;;;;;;23.50;9.60;;;2.10;99.90;;;;;;4981922;28;20093;-72
2023/12/01 02:37:44;;;;;;;22.85;10.52;;;2.10;99.90;;;;;;4999432;28;20026;-73
2023/12/01 02:40:15;;;;;;;20.45;8.73;;;2.10;99.90;;;;;;4981777;28;20030;-73
2023/12/01 02:42:51;;;;;;;20.83;9.48;;;2.10;99.90;;;;;;4999193;28;20133;-73
2023/12/01 02:45:18;;;;;;;21.13;9.10;;;2.10;99.90;;;;;;4982204;28;20026;-72
2023/12/01 02:47:47;;;;;;;24.33;10.52;;;2.10;99.90;;;;;;4981921;28;20026;-73
2023/12/01 02:50:13;;;;;;;22.83;9.25;;;2.00;99.90;;;;;;4998962;28;20051;-72
2023/12/01 02:52:39;;;;;;;23.42;9.45;;;2.10;99.90;;;;;;4998656;28;20029;-72
2023/12/01 02:55:05;;;;;;;24.00;9.80;;;2.10;99.90;;;;;;4998634;28;20023;-73
2023/12/01 02:57:30;;;;;;;22.58;9.32;;;2.10;99.90;;;;;;4982458;28;20037;-73
2023/12/01 02:59:56;;;;;;;23.40;10.43;;;2.10;99.90;;;;;;4981761;28;20034;-72
2023/12/01 03:02:28;;;;;;;18.05;8.27;;;2.20;99.90;;;;;;4981548;28;20026;-73
2023/12/01 03:04:54;;;;;;;16.77;7.82;;;2.00;99.90;;;;;;4998444;28;20022;-73
2023/12/01 03:07:20;;;;;;;23.58;8.18;;;2.00;99.90;;;;;;4998402;28;20029;-73
2023/12/01 03:09:46;;;;;;;23.75;9.55;;;1.90;99.90;;;;;;4998448;28;20023;-72
2023/12/01 03:12:11;;;;;;;19.38;8.45;;;2.00;99.90;;;;;;4998356;28;20029;-72
2023/12/01 03:14:37;;;;;;;19.80;8.25;;;2.10;99.90;;;;;;4981295;28;20026;-72
2023/12/01 03:17:02;;;;;;;22.30;9.00;;;2.10;99.90;;;;;;4981237;28;20091;-73
2023/12/01 03:19:29;;;;;;;16.80;8.25;;;1.90;99.90;;;;;;4997558;28;20048;-73
2023/12/01 03:21:55;;;;;;;23.67;8.57;;;2.00;99.90;;;;;;4998173;28;20105;-72
2023/12/01 03:24:21;;;;;;;17.88;8.20;;;1.90;99.90;;;;;;4981059;28;20034;-72
2023/12/01 03:26:46;;;;;;;19.88;7.43;;;2.00;99.90;;;;;;4998572;28;20030;-73
2023/12/01 03:29:12;;;;;;;20.17;8.30;;;1.90;99.90;;;;;;4981932;28;20099;-73
2023/12/01 03:31:37;;;;;;;19.38;8.35;;;1.80;99.90;;;;;;4998041;28;20061;-73
2023/12/01 03:34:05;;;;;;;21.75;9.32;;;1.80;99.90;;;;;;4981099;28;20039;-72
2023/12/01 03:36:31;;;;;;;17.65;7.35;;;1.90;99.90;;;;;;4998213;28;20061;-72
2023/12/01 03:38:57;;;;;;;23.30;9.02;;;1.90;99.90;;;;;;4997880;28;20026;-72
2023/12/01 03:41:23;;;;;;;23.85;10.05;;;2.10;99.90;;;;;;4980837;28;20068;-72
2023/12/01 03:43:48;;;;;;;21.10;8.75;;;2.10;99.90;;;;;;4997879;28;20080;-73
2023/12/01 03:46:14;;;;;;;23.77;8.25;;;2.10;99.90;;;;;;4980768;28;20037;-73
2023/12/01 03:48:39;;;;;;;19.08;8.45;;;2.20;99.90;;;;;;4997750;28;20028;-73
2023/12/01 03:51:05;;;;;;;19.13;8.57;;;2.20;99.90;;;;;;4997921;28;20022;-73
2023/12/01 03:53:31;;;;;;;21.58;8.57;;;2.10;99.90;;;;;;4997698;28;20034;-73
2023/12/01 03:56:00;;;;;;;27.98;9.05;;;2.10;99.90;;;;;;4997939;28;20106;-72
2023/12/01 03:58:25;;;;;;;24.60;11.07;;;2.10;99.90;;;;;;4997689;28;20025;-73
2023/12/01 04:00:52;;;;;;;23.83;9.85;;;2.10;99.90;;;;;;4997602;28;20208;-73
2023/12/01 04:03:18;;;;;;;22.88;8.95;;;2.10;99.90;;;;;;4981114;28;20030;-72
2023/12/01 04:05:43;;;;;;;22.65;8.95;;;2.10;99.90;;;;;;4997617;28;20026;-72
2023/12/01 04:08:09;;;;;;;20.40;8.02;;;2.10;99.90;;;;;;4980283;28;20045;-72
2023/12/01 04:10:34;;;;;;;23.48;9.32;;;2.00;99.90;;;;;;4980260;28;20027;-72
2023/12/01 04:13:07;;;;;;;23.10;9.55;;;2.00;99.90;;;;;;4980367;28;20042;-72
2023/12/01 04:15:33;;;;;;;23.70;9.50;;;2.10;99.90;;;;;;4981396;28;20022;-72
2023/12/01 04:18:06;;;;;;;21.77;9.75;;;2.10;99.90;;;;;;4997388;28;20026;-72
2023/12/01 04:20:35;;;;;;;20.75;9.40;;;2.20;99.90;;;;;;4980585;28;20026;-72
2023/12/01 04:23:11;;;;;;;23.90;10.15;;;2.10;99.90;;;;;;4980514;28;20141;-72
2023/12/01 04:25:39;;;;;;;24.27;10.30;;;2.20;99.90;;;;;;4997652;28;20030;-73
2023/12/01 04:28:06;;;;;;;20.35;8.63;;;2.20;99.90;;;;;;4980229;28;20030;-72
2023/12/01 04:30:35;;;;;;;21.92;9.38;;;2.20;99.90;;;;;;4997626;28;20081;-73
2023/12/01 04:33:01;;;;;;;22.58;10.02;;;2.20;99.90;;;;;;4984529;28;20216;-73
2023/12/01 04:35:32;;;;;;;24.38;9.77;;;2.10;99.90;;;;;;5001169;28;20030;-73
2023/12/01 04:37:59;;;;;;;22.75;9.75;;;2.10;99.90;;;;;;4984626;28;20022;-73
2023/12/01 04:40:29;;;;;;;24.55;10.27;;;2.10;99.90;;;;;;5001173;28;20026;-72
2023/12/01 04:42:57;;;;;;;32.28;10.95;;;2.10;99.90;;;;;;4983995;28;20058;-72
2023/12/01 04:45:27;;;;;;;25.23;10.98;;;2.10;99.90;;;;;;5001395;28;20081;-72
2023/12/01 04:47:55;;;;;;;26.17;10.07;;;2.10;99.90;;;;;;4983998;28;20077;-72
2023/12/01 04:50:25;;;;;;;29.58;11.43;;;2.10;99.90;;;;;;5000992;28;20034;-72
2023/12/01 04:52:54;;;;;;;30.38;11.43;;;2.20;99.90;;;;;;4983759;28;20041;-72
2023/12/01 04:55:22;;;;;;;28.42;12.00;;;2.20;99.90;;;;;;5000915;28;20072;-73
2023/12/01 04:57:48;;;;;;;21.42;10.23;;;2.20;99.90;;;;;;4984435;28;20030;-73
2023/12/01 05:00:19;;;;;;;29.60;11.85;;;2.20;99.90;;;;;;4983984;28;20113;-72
2023/12/01 05:03:11;;;;;;;29.63;12.38;;;2.20;99.90;;;;;;4983680;28;20034;-72
2023/12/01 05:05:38;;;;;;;29.48;12.30;;;2.20;99.90;;;;;;4996591;28;20039;-72
2023/12/01 05:08:05;;;;;;;29.02;11.45;;;2.30;99.90;;;;;;5000759;28;20026;-72
2023/12/01 05:10:32;;;;;;;28.88;11.40;;;2.20;99.90;;;;;;4984538;28;20121;-72
2023/12/01 05:13:00;;;;;;;26.27;10.23;;;2.20;99.90;;;;;;5000625;28;20023;-73
2023/12/01 05:15:28;;;;;;;28.20;11.85;;;2.20;99.90;;;;;;4983512;28;20027;-73
2023/12/01 05:17:58;;;;;;;27.63;10.75;;;2.10;99.90;;;;;;5000662;28;20019;-72
2023/12/01 05:20:25;;;;;;;25.20;10.50;;;2.10;99.90;;;;;;5000871;28;20070;-73
2023/12/01 05:22:58;;;;;;;28.15;11.02;;;2.10;99.90;;;;;;5000748;28;20135;-72
2023/12/01 05:25:25;;;;;;;27.35;10.27;;;2.20;99.90;;;;;;5000582;28;20037;-72
2023/12/01 05:27:55;;;;;;;23.50;9.95;;;2.10;99.90;;;;;;4983303;28;20027;-73
2023/12/01 05:30:22;;;;;;;32.92;11.73;;;2.10;99.90;;;;;;5007119;23;20038;-67
2023/12/01 05:32:50;;;;;;;28.60;11.02;;;2.10;99.90;;;;;;4983064;28;20030;-67
2023/12/01 05:35:16;;;;;;;30.42;11.77;;;2.10;99.90;;;;;;5000215;28;20022;-67
2023/12/01 05:37:50;;;;;;;29.92;10.75;;;2.10;99.90;;;;;;4983120;28;20025;-67
2023/12/01 05:40:20;;;;;;;27.45;12.13;;;2.10;99.90;;;;;;4983290;28;20039;-67
2023/12/01 05:42:47;;;;;;;27.45;11.38;;;2.20;99.90;;;;;;4999633;28;20025;-67
2023/12/01 05:45:14;;;;;;;27.63;10.27;;;2.30;99.90;;;;;;4982854;28;20117;-67
2023/12/01 05:47:45;;;;;;;29.13;11.52;;;2.20;99.90;;;;;;4983101;28;20036;-67
2023/12/01 05:50:34;;;;;;;28.98;11.07;;;2.20;99.90;;;;;;4999957;28;20084;-67
2023/12/01 05:53:02;;;;;;;27.92;11.18;;;2.30;99.90;;;;;;4982024;28;20037;-67
2023/12/01 05:55:33;;;;;;;29.73;11.30;;;2.30;99.90;;;;;;4999718;28;20026;-67
2023/12/01 05:58:04;;;;;;;30.08;11.80;;;2.30;99.90;;;;;;4982942;28;20090;-66
2023/12/01 06:00:31;;;;;;;30.27;10.43;;;2.30;99.90;;;;;;4982663;28;20049;-67
2023/12/01 06:02:58;;;;;;;31.90;11.75;;;2.20;99.90;;;;;;4999735;28;20085;-66
2023/12/01 06:05:24;;;;;;;32.35;11.98;;;2.20;99.90;;;;;;4982500;28;20026;-67
2023/12/01 06:07:54;;;;;;;28.30;12.15;;;2.00;99.90;;;;;;4982999;28;20076;-67
2023/12/01 06:10:21;;;;;;;35.63;12.02;;;2.00;99.90;;;;;;4999659;28;20080;-67
2023/12/01 06:12:47;;;;;;;31.23;11.55;;;2.10;99.90;;;;;;5005288;28;20113;-67
2023/12/01 06:15:14;;;;;;;24.85;10.02;;;2.10;99.90;;;;;;5005817;28;20025;-67
2023/12/01 06:17:41;;;;;;;28.67;11.38;;;2.20;99.90;;;;;;4982380;28;20072;-67
2023/12/01 06:20:17;;;;;;;24.85;10.98;;;2.20;99.90;;;;;;4999363;28;20019;-67
2023/12/01 06:22:46;;;;;;;28.02;11.13;;;2.10;99.90;;;;;;4999426;28;20033;-67
2023/12/01 06:25:12;;;;;;;26.27;10.57;;;2.10;99.90;;;;;;4982211;28;20084;-67
2023/12/01 06:27:40;;;;;;;29.02;12.43;;;2.00;99.90;;;;;;4982813;28;20026;-67
2023/12/01 06:30:11;;;;;;;31.55;11.98;;;1.90;99.90;;;;;;4999223;28;20104;-67
2023/12/01 06:32:44;;;;;;;30.95;12.13;;;2.00;99.90;;;;;;4999515;28;20027;-67
2023/12/01 06:35:16;;;;;;;29.00;11.50;;;1.90;99.90;;;;;;4999512;28;20058;-67
2023/12/01 06:37:44;;;;;;;25.65;10.35;;;1.90;99.90;;;;;;4999467;28;20061;-67
2023/12/01 06:40:15;;;;;;;28.48;10.55;;;1.90;99.90;;;;;;4982168;28;20030;-67
2023/12/01 06:42:41;;;;;;;;;;;1.90;99.90;;;;;;4999796;28;20030;-67
2023/12/01 06:45:15;;;;;;;22.65;9.80;;;1.90;99.90;;;;;;4982065;28;19928;-67
2023/12/01 06:47:45;;;;;;;27.45;11.65;;;2.00;99.90;;;;;;4982836;28;20113;-67
2023/12/01 06:50:14;;;;;;;23.60;10.32;;;2.00;99.90;;;;;;4981722;28;20033;-67
2023/12/01 06:52:40;;;;;;;29.60;12.02;;;1.90;99.90;;;;;;4998999;28;20030;-67
2023/12/01 06:55:07;;;;;;;25.33;10.55;;;2.00;99.90;;;;;;4998801;28;20022;-67
2023/12/01 06:57:43;;;;;;;29.13;10.80;;;2.00;99.90;;;;;;4998696;28;20034;-67
2023/12/01 07:03:09;;;;;;;23.60;9.70;;;2.10;99.90;;;;;;4958309;29;20042;-67
2023/12/01 07:05:37;;;;;;;23.60;9.10;;;1.90;99.90;;;;;;4958424;29;20031;-67
2023/12/01 07:08:03;;;;;;;25.75;9.90;;;1.90;99.90;;;;;;4958688;29;20066;-67
2023/12/01 07:10:32;;;;;;;22.25;8.85;;;2.00;99.90;;;;;;4958095;29;20114;-67
2023/12/01 07:12:59;;;;;;;25.35;10.55;;;1.90;99.90;;;;;;4957974;29;20180;-67
2023/12/01 07:15:25;;;;;;;24.20;8.95;;;1.90;99.90;;;;;;4958165;29;20151;-67
2023/12/01 07:17:55;;;;;;;18.73;9.38;;;1.70;99.90;;;;;;4958057;29;20111;-67
2023/12/01 07:20:22;;;;;;;23.23;10.25;;;1.80;99.90;;;;;;4957809;29;20031;-67
2023/12/01 07:22:49;;;;;;;21.33;9.20;;;1.80;99.90;;;;;;4957920;29;20027;-67
2023/12/01 07:25:23;;;;;;;21.75;9.25;;;1.80;99.90;;;;;;4957724;29;20035;-68
2023/12/01 07:27:59;;;;;;;23.25;9.32;;;2.00;99.90;;;;;;4958042;29;20117;-67
2023/12/01 07:30:27;;;;;;;19.67;8.60;;;2.00;99.90;;;;;;4957847;29;20054;-67
2023/12/01 07:32:53;;;;;;;18.65;9.10;;;1.90;99.90;;;;;;4957838;29;20031;-67
2023/12/01 07:35:19;;;;;;;19.50;9.00;;;1.90;99.90;;;;;;4957835;29;20027;-67
2023/12/01 07:37:47;;;;;;;19.05;8.73;;;1.90;99.90;;;;;;4957680;29;20027;-67
2023/12/01 07:40:19;;;;;;;21.30;8.98;;;1.90;99.90;;;;;;4972893;28;20041;-67
2023/12/01 07:42:45;;;;;;;20.33;9.35;;;1.80;99.90;;;;;;4997810;28;20022;-67
2023/12/01 07:45:13;;;;;;;23.30;10.60;;;2.00;99.90;;;;;;4997772;28;20034;-67
2023/12/01 07:47:38;;;;;;;20.70;9.45;;;2.00;99.90;;;;;;4997968;28;20037;-67
2023/12/01 07:50:04;;;;;;;19.23;9.00;;;2.00;99.90;;;;;;4998188;28;20034;-67
2023/12/01 07:52:32;;;;;;;19.90;8.75;;;2.10;99.90;;;;;;4997660;28;20022;-68
2023/12/01 07:54:58;;;;;;;22.13;9.05;;;2.00;99.90;;;;;;4980284;28;20026;-67
2023/12/01 07:57:23;;;;;;;18.27;8.48;;;2.00;99.90;;;;;;4980539;28;20121;-67
2023/12/01 07:59:49;;;;;;;21.63;6.55;;;2.10;99.90;;;;;;4980897;28;20064;-67
2023/12/01 08:02:14;;;;;;;18.88;7.60;;;1.90;99.90;;;;;;4980662;28;20094;-67
2023/12/01 08:04:40;;;;;;;17.50;7.10;;;1.80;99.90;;;;;;4980533;28;20030;-67
2023/12/01 08:07:07;;;;;;;17.15;8.43;;;1.80;99.90;;;;;;4979901;28;20045;-67
2023/12/01 08:09:33;;;;;;;17.63;7.68;;;1.90;99.90;;;;;;4997730;28;20021;-67
2023/12/01 08:11:59;;;;;;;12.98;6.60;;;1.80;99.90;;;;;;4980388;28;20022;-67
2023/12/01 08:14:25;;;;;;;14.70;7.35;;;1.90;99.90;;;;;;4997570;28;20106;-67
2023/12/01 08:16:51;;;;;;;18.02;7.43;;;1.70;99.90;;;;;;4981052;28;20030;-67
2023/12/01 08:19:17;;;;;;;18.02;8.15;;;1.90;99.90;;;;;;4980024;28;20027;-67
2023/12/01 08:21:43;;;;;;;16.70;8.75;;;1.90;99.90;;;;;;4980639;28;20114;-67
2023/12/01 08:24:10;;;;;;;22.48;8.80;;;1.80;99.90;;;;;;4997357;28;20102;-67
2023/12/01 08:26:35;;;;;;;17.58;8.10;;;1.90;99.90;;;;;;4997203;28;20033;-67
2023/12/01 08:29:02;;;;;;;20.85;8.80;;;1.90;99.90;;;;;;4997112;28;20034;-67
2023/12/01 08:31:28;;;;;;;15.40;7.30;;;2.00;99.90;;;;;;4980152;28;20057;-66
2023/12/01 08:33:53;;;;;;;19.52;7.90;;;2.00;99.90;;;;;;4997521;28;20023;-66
2023/12/01 08:36:19;;;;;;;17.63;7.55;;;2.00;99.90;;;;;;4980153;28;20022;-66
2023/12/01 08:38:44;;;;;;;19.25;7.97;;;2.00;99.90;;;;;;4997130;28;20033;-67
2023/12/01 08:41:10;;;;;;;16.85;7.35;;;1.80;99.90;;;;;;4996965;28;20034;-66
2023/12/01 08:43:36;;;;;;;15.77;7.63;;;1.80;99.90;;;;;;4997433;28;20038;-66
2023/12/01 08:46:02;;;;;;;17.55;8.50;;;1.80;99.90;;;;;;4996995;28;20026;-66
2023/12/01 08:48:28;;;;;;;14.18;7.40;;;1.90;99.90;;;;;;4997126;28;20037;-67
2023/12/01 08:50:53;;;;;;;17.70;7.47;;;1.90;99.90;;;;;;4997148;28;20023;-67
2023/12/01 08:53:22;;;;;;;18.58;8.27;;;1.90;99.90;;;;;;4979753;28;20029;-67
2023/12/01 08:55:48;;;;;;;16.98;7.70;;;1.90;99.90;;;;;;4997055;28;20018;-67
2023/12/01 08:58:13;;;;;;;17.02;7.95;;;1.80;99.90;;;;;;4979821;28;20030;-67
2023/12/01 09:00:40;;;;;;;18.42;7.15;;;1.90;99.90;;;;;;4980588;28;20081;-67
2023/12/01 09:03:06;;;;;;;18.27;7.95;;;1.90;99.90;;;;;;4997226;28;20027;-67
2023/12/01 09:05:32;;;;;;;20.10;8.55;;;2.00;99.90;;;;;;4979863;28;20030;-67
2023/12/01 09:07:59;;;;;;;18.70;8.10;;;2.10;99.90;;;;;;4980509;28;20141;-67
2023/12/01 09:10:25;;;;;;;15.35;6.75;;;2.00;99.90;;;;;;4997286;28;20022;-67
2023/12/01 09:12:51;;;;;;;16.02;7.97;;;2.00;99.90;;;;;;4979911;28;20085;-67
2023/12/01 09:15:17;;;;;;;15.20;7.07;;;1.90;99.90;;;;;;4979830;28;20050;-67
2023/12/01 09:17:43;;;;;;;21.73;8.50;;;1.90;99.90;;;;;;4981253;28;20042;-67
2023/12/01 09:20:09;;;;;;;18.58;7.88;;;1.90;99.90;;;;;;4983189;28;20022;-67
2023/12/01 09:22:36;;;;;;;19.10;7.80;;;2.00;99.90;;;;;;5000671;28;20030;-66
2023/12/01 09:25:02;;;;;;;23.02;8.90;;;1.80;99.90;;;;;;5000287;28;20101;-67
2023/12/01 09:27:28;;;;;;;21.33;7.80;;;1.90;99.90;;;;;;4983683;28;20057;-67
2023/12/01 09:29:53;;;;;;;20.38;9.00;;;2.00;99.90;;;;;;5000089;28;20085;-67
2023/12/01 09:32:19;;;;;;;19.48;8.13;;;2.00;99.90;;;;;;5000221;28;20037;-67
2023/12/01 09:34:45;;;;;;;19.08;8.30;;;1.90;99.90;;;;;;4983441;28;20119;-66
2023/12/01 09:37:12;;;;;;;23.13;9.57;;;1.90;99.90;;;;;;4983268;28;20030;-67
2023/12/01 09:39:37;;;;;;;18.83;8.32;;;1.90;99.90;;;;;;5000275;28;20022;-66
2023/12/01 09:42:08;;;;;;;22.48;7.88;;;1.80;99.90;;;;;;5000267;28;20081;-67
2023/12/01 09:44:37;;;;;;;15.52;7.38;;;1.90;99.90;;;;;;5000298;28;20026;-66
2023/12/01 09:47:10;;;;;;;19.63;8.43;;;1.90;99.90;;;;;;4983076;28;20053;-67
2023/12/01 09:49:37;;;;;;;15.90;6.45;;;1.80;99.90;;;;;;5000273;28;20031;-66
2023/12/01 09:52:03;;;;;;;17.35;7.80;;;1.70;99.90;;;;;;4999843;28;20026;-67
2023/12/01 09:54:30;;;;;;;18.40;7.95;;;1.80;99.90;;;;;;4999671;28;20057;-67
2023/12/01 09:56:57;;;;;;;20.13;8.95;;;1.80;99.90;;;;;;4999701;28;20018;-67
2023/12/01 09:59:23;;;;;;;17.42;8.00;;;1.90;99.90;;;;;;5000116;28;20050;-67
2023/12/01 10:01:50;;;;;;;19.88;8.70;;;2.10;99.90;;;;;;4983108;28;20046;-67
2023/12/01 10:04:16;;;;;;;16.15;7.60;;;2.00;99.90;;;;;;4999763;28;20030;-66
2023/12/01 10:06:41;;;;;;;18.65;8.25;;;1.80;99.90;;;;;;4983072;28;20026;-67
2023/12/01 10:09:10;;;;;;;16.45;8.05;;;1.90;99.90;;;;;;4982351;28;20037;-66
2023/12/01 10:11:36;;;;;;;18.77;8.40;;;1.90;99.90;;;;;;4999585;28;20033;-67
2023/12/01 10:14:08;;;;;;;19.90;8.55;;;1.80;99.90;;;;;;4999427;28;20026;-67
2023/12/01 10:16:36;;;;;;;18.80;7.95;;;1.90;99.90;;;;;;4999663;28;20022;-67
2023/12/01 10:19:06;;;;;;;19.35;9.02;;;2.00;99.90;;;;;;4982122;28;20073;-66
2023/12/01 10:21:43;;;;;;;18.95;8.65;;;2.10;99.90;;;;;;4982209;28;20092;-67
2023/12/01 10:24:27;;;;;;;18.75;8.57;;;2.10;99.90;;;;;;4999257;28;20031;-67
2023/12/01 10:26:54;;;;;;;17.65;7.95;;;2.10;99.90;;;;;;4982195;28;20041;-67
2023/12/01 10:29:30;;;;;;;19.38;7.90;;;2.20;99.90;;;;;;4981407;28;20108;-66
2023/12/01 10:32:00;;;;;;;19.05;8.20;;;2.10;99.90;;;;;;4982413;28;20053;-67
2023/12/01 10:34:26;;;;;;;24.40;9.95;;;2.20;99.90;;;;;;4999252;28;20084;-67
2023/12/01 10:36:53;;;;;;;19.80;9.00;;;2.20;99.90;;;;;;4999143;28;20030;-67
2023/12/01 10:39:24;;;;;;;21.27;9.25;;;2.10;99.90;;;;;;4981928;28;20026;-67
2023/12/01 10:41:50;;;;;;;19.63;8.63;;;2.10;99.90;;;;;;4999141;28;20101;-67
2023/12/01 10:44:17;;;;;;;20.15;8.48;;;2.10;99.90;;;;;;4998942;28;20068;-67
2023/12/01 10:46:46;;;;;;;20.38;8.70;;;2.20;99.90;;;;;;4981612;28;20026;-67
2023/12/01 10:49:15;;;;;;;22.88;9.57;;;2.30;99.90;;;;;;4998675;28;20027;-67
2023/12/01 10:51:43;;;;;;;18.55;8.65;;;2.00;99.90;;;;;;4999165;28;20077;-67
2023/12/01 10:54:14;;;;;;;21.88;9.27;;;1.90;99.90;;;;;;4999163;28;20038;-67
2023/12/01 10:57:11;;;;;;;24.38;9.30;;;2.00;99.90;;;;;;4998973;28;20076;-67
2023/12/01 10:59:38;;;;;;;19.02;8.52;;;2.10;99.90;;;;;;4998779;28;20025;-67
2023/12/01 11:02:05;;;;;;;23.40;9.05;;;1.90;99.90;;;;;;4998504;28;20080;-67
2023/12/01 11:04:32;;;;;;;25.65;9.32;;;1.90;99.90;;;;;;4981497;28;20027;-67
2023/12/01 11:07:45;;;;;;;17.85;8.23;;;2.10;99.90;;;;;;4981848;28;20029;-67
2023/12/01 11:10:21;;;;;;;20.42;8.60;;;2.00;99.90;;;;;;4967616;28;20094;-67
2023/12/01 11:13:08;;;;;;;25.23;9.27;;;1.90;99.90;;;;;;4998179;28;20026;-67
2023/12/01 11:15:36;;;;;;;23.13;8.95;;;1.90;99.90;;;;;;4982305;28;20040;-67
2023/12/01 11:18:01;;;;;;;20.27;8.45;;;2.00;99.90;;;;;;4981263;28;20029;-67
2023/12/01 11:20:30;;;;;;;21.27;8.60;;;2.10;99.90;;;;;;4981126;28;20022;-67
2023/12/01 11:23:07;;;;;;;15.55;7.43;;;2.00;99.90;;;;;;4981543;28;20038;-67
2023/12/01 11:26:05;;;;;;;18.13;8.43;;;2.10;99.90;;;;;;4981714;28;20026;-67
2023/12/01 11:31:42;;;;;;;17.70;7.18;;;2.10;99.90;;;;;;4938735;29;20099;-68
2023/12/01 11:34:02;;;;;;;22.98;9.57;;;1.90;99.90;;;;;;4937970;29;20039;-68
2023/12/01 11:36:31;;;;;;;16.80;7.18;;;1.80;99.90;;;;;;4938923;29;20051;-68
2023/12/01 11:39:16;;;;;;;20.42;7.07;;;1.90;99.90;;;;;;4938735;29;20039;-68
2023/12/01 11:41:42;;;;;;;18.15;7.80;;;1.90;99.90;;;;;;4937871;29;20028;-68
2023/12/01 11:44:11;;;;;;;17.95;7.43;;;1.80;99.90;;;;;;4938480;29;20075;-68
2023/12/01 11:46:39;;;;;;;17.25;8.15;;;1.80;99.90;;;;;;4922429;29;20042;-68
2023/12/01 11:49:06;;;;;;;16.65;7.32;;;1.90;99.90;;;;;;4938236;29;20086;-68
2023/12/01 11:51:31;;;;;;;18.92;8.30;;;1.90;99.90;;;;;;4938201;29;20040;-68
2023/12/01 11:54:02;;;;;;;17.50;8.05;;;1.90;99.90;;;;;;4922181;29;20028;-68
2023/12/01 11:56:28;;;;;;;18.30;7.95;;;1.80;99.90;;;;;;4938282;29;20031;-68
2023/12/01 11:58:55;;;;;;;19.02;8.35;;;1.70;99.90;;;;;;4938202;29;20183;-68
2023/12/01 12:01:22;;;;;;;18.65;8.55;;;1.80;99.90;;;;;;4922366;29;20031;-68
2023/12/01 12:03:55;;;;;;;17.55;7.60;;;1.90;99.90;;;;;;4942186;28;20040;-68
2023/12/01 12:06:22;;;;;;;17.52;7.78;;;1.90;99.90;;;;;;4980452;28;20022;-68
2023/12/01 12:08:48;;;;;;;17.23;7.47;;;1.90;99.90;;;;;;4997593;28;20088;-68
2023/12/01 12:11:15;;;;;;;15.63;7.47;;;1.80;99.90;;;;;;4980545;28;20065;-68
2023/12/01 12:13:41;;;;;;;23.60;8.15;;;1.70;99.90;;;;;;4997360;28;20023;-68
2023/12/01 12:16:07;;;;;;;20.88;8.07;;;1.70;99.90;;;;;;4997583;28;20023;-68
2023/12/01 12:18:34;;;;;;;20.95;8.55;;;1.60;99.90;;;;;;4980298;28;20027;-68
2023/12/01 12:21:04;;;;;;;19.58;8.30;;;1.70;99.90;;;;;;4997577;28;20079;-68
2023/12/01 12:23:31;;;;;;;15.68;6.57;;;1.70;99.90;;;;;;4997519;28;20073;-68
2023/12/01 12:26:17;;;;;;;19.42;7.60;;;1.70;99.90;;;;;;4997473;28;20045;-68
2023/12/01 12:28:52;;;;;;;18.02;6.75;;;1.80;99.90;;;;;;4980216;28;20085;-67
2023/12/01 12:31:18;;;;;;;16.23;7.63;;;1.80;99.90;;;;;;4980552;28;20039;-67
2023/12/01 12:33:44;;;;;;;16.35;6.93;;;1.90;99.90;;;;;;4997153;28;20029;-66
2023/12/01 12:36:12;;;;;;;25.13;8.43;;;1.90;99.90;;;;;;4980467;28;20023;-67
2023/12/01 12:38:38;;;;;;;23.63;8.43;;;1.80;99.90;;;;;;4980563;28;20030;-68
2023/12/01 12:41:40;;;;;;;21.15;7.85;;;1.90;99.90;;;;;;4997518;28;20052;-67
2023/12/01 12:44:07;;;;;;;20.98;8.77;;;2.00;99.90;;;;;;4997091;28;20041;-67
2023/12/01 12:46:34;;;;;;;15.55;6.38;;;2.00;99.90;;;;;;4997434;28;20034;-67
2023/12/01 12:49:07;;;;;;;18.27;7.45;;;1.80;99.90;;;;;;4996999;28;20034;-68
2023/12/01 12:51:33;;;;;;;16.55;6.60;;;1.90;99.90;;;;;;4980266;28;20053;-67
2023/12/01 12:53:59;;;;;;;16.88;7.88;;;2.00;99.90;;;;;;5001086;28;20030;-67
2023/12/01 12:56:26;;;;;;;12.82;6.80;;;2.10;99.90;;;;;;5001144;28;20026;-67